createdAt,value
2018-12-07T00:00:08.976Z,15.94
2018-12-07T00:00:21.365Z,15.94
2018-12-07T00:00:33.755Z,15.94
2018-12-07T00:00:46.180Z,15.94
2018-12-07T00:00:58.564Z,15.94
2018-12-07T00:01:10.956Z,15.94
2018-12-07T00:01:23.340Z,15.94
2018-12-07T00:01:35.724Z,15.94
2018-12-07T00:01:48.195Z,14.5
2018-12-07T00:02:00.724Z,14.5
2018-12-07T00:02:13.101Z,14.5
2018-12-07T00:02:25.467Z,14.5
2018-12-07T00:02:37.869Z,14.5
2018-12-07T00:02:50.265Z,14.5
2018-12-07T00:03:02.626Z,14.5
2018-12-07T00:03:15.058Z,14.5
2018-12-07T00:03:27.420Z,14.5
2018-12-07T00:03:39.837Z,14.5
2018-12-07T00:03:52.210Z,14.5
2018-12-07T00:04:04.661Z,14.5
2018-12-07T00:04:17.116Z,14.5
2018-12-07T00:04:29.507Z,14.5
2018-12-07T00:04:41.880Z,14.5
2018-12-07T00:04:54.268Z,14.5
2018-12-07T00:05:06.654Z,14.5
2018-12-07T00:05:19.017Z,14.5
2018-12-07T00:05:31.394Z,14.5
2018-12-07T00:05:43.795Z,14.5
2018-12-07T00:05:56.159Z,14.5
2018-12-07T00:06:08.536Z,14.5
2018-12-07T00:06:21.031Z,14.5
2018-12-07T00:06:33.426Z,14.5
2018-12-07T00:06:45.932Z,14.5
2018-12-07T00:06:58.302Z,14.5
2018-12-07T00:07:10.673Z,14.5
2018-12-07T00:07:23.064Z,14.5
2018-12-07T00:07:35.436Z,14.5
2018-12-07T00:07:47.817Z,14.5
2018-12-07T00:08:00.190Z,14.5
2018-12-07T00:08:12.554Z,14.5
2018-12-07T00:08:24.919Z,14.5
2018-12-07T00:08:38.480Z,14.5
2018-12-07T00:08:50.944Z,14.5
2018-12-07T00:09:03.476Z,14.5
2018-12-07T00:09:15.971Z,14.5
2018-12-07T00:09:28.351Z,14.5
2018-12-07T00:09:40.753Z,14.5
2018-12-07T00:09:53.139Z,14.5
2018-12-07T00:10:05.529Z,14.5
2018-12-07T00:10:17.920Z,14.5
2018-12-07T00:10:30.322Z,14.5
2018-12-07T00:10:42.716Z,14.5
2018-12-07T00:10:55.102Z,14.5
2018-12-07T00:11:07.522Z,14.5
2018-12-07T00:11:19.917Z,14.5
2018-12-07T00:11:32.302Z,14.5
2018-12-07T00:11:44.695Z,15.2
2018-12-07T00:11:57.051Z,15.2
2018-12-07T00:12:09.448Z,15.2
2018-12-07T00:12:21.834Z,15.2
2018-12-07T00:12:34.218Z,15.2
2018-12-07T00:12:46.604Z,15.2
2018-12-07T00:12:58.998Z,15.2
2018-12-07T00:13:11.479Z,15.2
2018-12-07T00:13:23.982Z,15.2
2018-12-07T00:13:36.387Z,15.2
2018-12-07T00:13:48.760Z,15.2
2018-12-07T00:14:01.137Z,15.2
2018-12-07T00:14:14.519Z,15.2
2018-12-07T00:14:26.903Z,15.2
2018-12-07T00:14:39.294Z,15.2
2018-12-07T00:14:51.706Z,15.2
2018-12-07T00:15:04.079Z,15.2
2018-12-07T00:15:16.489Z,15.2
2018-12-07T00:15:28.886Z,15.2
2018-12-07T00:15:41.273Z,15.2
2018-12-07T00:15:53.661Z,15.2
2018-12-07T00:16:06.023Z,15.2
2018-12-07T00:16:18.408Z,15.2
2018-12-07T00:16:30.758Z,15.2
2018-12-07T00:16:43.132Z,15.2
2018-12-07T00:16:55.497Z,15.2
2018-12-07T00:17:07.916Z,15.2
2018-12-07T00:17:20.282Z,15.2
2018-12-07T00:17:32.689Z,15.2
2018-12-07T00:17:45.069Z,15.2
2018-12-07T00:17:57.437Z,15.2
2018-12-07T00:18:09.795Z,15.2
2018-12-07T00:18:22.339Z,15.2
2018-12-07T00:18:34.712Z,15.2
2018-12-07T00:18:47.079Z,15.2
2018-12-07T00:18:59.446Z,15.2
2018-12-07T00:19:11.831Z,15.2
2018-12-07T00:19:24.489Z,15.2
2018-12-07T00:19:36.933Z,15.2
2018-12-07T00:19:56.904Z,15.2
2018-12-07T00:20:09.290Z,15.2
2018-12-07T00:20:21.682Z,15.2
2018-12-07T00:20:34.219Z,15.2
2018-12-07T00:20:46.587Z,15.2
2018-12-07T00:20:59.020Z,15.2
2018-12-07T00:21:11.394Z,15.2
2018-12-07T00:21:23.774Z,15.2
2018-12-07T00:21:36.145Z,15.2
2018-12-07T00:21:48.589Z,13.55
2018-12-07T00:22:00.981Z,13.55
2018-12-07T00:22:13.333Z,13.55
2018-12-07T00:22:25.719Z,13.55
2018-12-07T00:22:38.171Z,13.55
2018-12-07T00:22:50.557Z,13.55
2018-12-07T00:23:03.039Z,13.55
2018-12-07T00:23:15.426Z,13.55
2018-12-07T00:23:27.785Z,13.55
2018-12-07T00:23:40.151Z,13.55
2018-12-07T00:23:52.499Z,13.55
2018-12-07T00:24:04.871Z,13.55
2018-12-07T00:24:17.260Z,13.55
2018-12-07T00:24:29.626Z,13.55
2018-12-07T00:24:41.988Z,13.55
2018-12-07T00:24:54.352Z,13.55
2018-12-07T00:25:06.720Z,13.55
2018-12-07T00:25:19.130Z,13.55
2018-12-07T00:25:31.584Z,13.55
2018-12-07T00:25:44.585Z,13.55
2018-12-07T00:25:57.073Z,13.55
2018-12-07T00:26:09.687Z,13.55
2018-12-07T00:26:22.071Z,13.55
2018-12-07T00:26:34.559Z,13.55
2018-12-07T00:26:46.921Z,13.55
2018-12-07T00:26:59.310Z,13.55
2018-12-07T00:27:11.683Z,13.55
2018-12-07T00:27:24.181Z,13.55
2018-12-07T00:27:36.540Z,13.55
2018-12-07T00:27:48.898Z,13.55
2018-12-07T00:28:01.262Z,13.55
2018-12-07T00:28:13.622Z,13.55
2018-12-07T00:28:25.994Z,13.55
2018-12-07T00:28:38.377Z,13.55
2018-12-07T00:28:50.926Z,13.55
2018-12-07T00:29:03.286Z,13.55
2018-12-07T00:29:15.655Z,13.55
2018-12-07T00:29:28.032Z,13.55
2018-12-07T00:29:40.416Z,13.55
2018-12-07T00:29:52.780Z,13.55
2018-12-07T00:30:05.168Z,13.55
2018-12-07T00:30:17.618Z,13.55
2018-12-07T00:30:30.416Z,13.55
2018-12-07T00:30:42.834Z,13.55
2018-12-07T00:30:55.200Z,13.55
2018-12-07T00:31:07.554Z,13.55
2018-12-07T00:31:19.935Z,13.55
2018-12-07T00:31:33.465Z,13.55
2018-12-07T00:31:45.886Z,14.84
2018-12-07T00:31:58.278Z,14.84
2018-12-07T00:32:10.657Z,14.84
2018-12-07T00:32:23.163Z,14.84
2018-12-07T00:32:35.604Z,14.84
2018-12-07T00:32:48.011Z,14.84
2018-12-07T00:33:00.476Z,14.84
2018-12-07T00:33:12.847Z,14.84
2018-12-07T00:33:25.240Z,14.84
2018-12-07T00:33:37.598Z,14.84
2018-12-07T00:33:50.039Z,14.84
2018-12-07T00:34:02.406Z,14.84
2018-12-07T00:34:14.764Z,14.84
2018-12-07T00:34:27.121Z,14.84
2018-12-07T00:34:39.704Z,14.84
2018-12-07T00:34:52.063Z,14.84
2018-12-07T00:35:04.461Z,14.84
2018-12-07T00:35:16.843Z,14.84
2018-12-07T00:35:29.235Z,14.84
2018-12-07T00:35:41.606Z,14.84
2018-12-07T00:35:53.962Z,14.84
2018-12-07T00:36:06.325Z,14.84
2018-12-07T00:36:18.704Z,14.84
2018-12-07T00:36:31.069Z,14.84
2018-12-07T00:36:43.449Z,14.84
2018-12-07T00:36:55.892Z,14.84
2018-12-07T00:37:08.342Z,14.84
2018-12-07T00:37:20.722Z,14.84
2018-12-07T00:37:33.185Z,14.84
2018-12-07T00:37:45.593Z,14.84
2018-12-07T00:37:57.980Z,14.84
2018-12-07T00:38:10.349Z,14.84
2018-12-07T00:38:22.707Z,14.84
2018-12-07T00:38:35.117Z,14.84
2018-12-07T00:38:47.485Z,14.84
2018-12-07T00:38:59.841Z,14.84
2018-12-07T00:39:12.256Z,14.84
2018-12-07T00:39:24.624Z,14.84
2018-12-07T00:39:36.982Z,14.84
2018-12-07T00:39:49.368Z,14.84
2018-12-07T00:40:01.730Z,14.84
2018-12-07T00:40:14.090Z,14.84
2018-12-07T00:40:26.467Z,14.84
2018-12-07T00:40:38.833Z,14.84
2018-12-07T00:40:51.198Z,14.84
2018-12-07T00:41:03.618Z,14.84
2018-12-07T00:41:16.228Z,14.84
2018-12-07T00:41:28.581Z,14.84
2018-12-07T00:41:40.942Z,14.84
2018-12-07T00:41:53.296Z,12.69
2018-12-07T00:42:05.847Z,12.69
2018-12-07T00:42:18.332Z,12.69
2018-12-07T00:42:30.699Z,12.69
2018-12-07T00:42:43.066Z,12.69
2018-12-07T00:42:55.437Z,12.69
2018-12-07T00:43:07.819Z,12.69
2018-12-07T00:43:20.184Z,12.69
2018-12-07T00:43:32.537Z,12.69
2018-12-07T00:43:44.886Z,12.69
2018-12-07T00:43:57.245Z,12.69
2018-12-07T00:44:09.606Z,12.69
2018-12-07T00:44:21.971Z,12.69
2018-12-07T00:44:34.345Z,12.69
2018-12-07T00:44:48.320Z,12.69
2018-12-07T00:45:00.830Z,12.69
2018-12-07T00:45:13.199Z,12.69
2018-12-07T00:45:25.552Z,12.69
2018-12-07T00:45:37.928Z,12.69
2018-12-07T00:45:50.304Z,12.69
2018-12-07T00:46:02.675Z,12.69
2018-12-07T00:46:15.103Z,12.69
2018-12-07T00:46:27.544Z,12.69
2018-12-07T00:46:40.031Z,12.69
2018-12-07T00:46:52.390Z,12.69
2018-12-07T00:47:04.758Z,12.69
2018-12-07T00:47:17.183Z,12.69
2018-12-07T00:47:29.623Z,12.69
2018-12-07T00:47:41.995Z,12.69
2018-12-07T00:47:54.449Z,12.69
2018-12-07T00:48:06.835Z,12.69
2018-12-07T00:48:19.195Z,12.69
2018-12-07T00:48:31.868Z,12.69
2018-12-07T00:48:44.218Z,12.69
2018-12-07T00:48:56.598Z,12.69
2018-12-07T00:49:08.950Z,12.69
2018-12-07T00:49:21.299Z,12.69
2018-12-07T00:49:33.655Z,12.69
2018-12-07T00:49:46.021Z,12.69
2018-12-07T00:49:58.615Z,12.69
2018-12-07T00:50:10.997Z,12.69
2018-12-07T00:50:23.365Z,12.69
2018-12-07T00:50:35.746Z,12.69
2018-12-07T00:50:48.312Z,12.69
2018-12-07T00:51:00.675Z,12.69
2018-12-07T00:51:13.022Z,12.69
2018-12-07T00:51:25.407Z,12.69
2018-12-07T00:51:37.787Z,12.69
2018-12-07T00:51:50.315Z,15.55
2018-12-07T00:52:02.670Z,15.55
2018-12-07T00:52:15.047Z,15.55
2018-12-07T00:52:27.399Z,15.55
2018-12-07T00:52:39.820Z,15.55
2018-12-07T00:52:52.177Z,15.55
2018-12-07T00:53:04.573Z,15.55
2018-12-07T00:53:16.955Z,15.55
2018-12-07T00:53:29.315Z,15.55
2018-12-07T00:53:41.681Z,15.55
2018-12-07T00:53:54.048Z,15.55
2018-12-07T00:54:06.440Z,15.55
2018-12-07T00:54:18.803Z,15.55
2018-12-07T00:54:31.209Z,15.55
2018-12-07T00:54:43.753Z,15.55
2018-12-07T00:54:56.127Z,15.55
2018-12-07T00:55:08.589Z,15.55
2018-12-07T00:55:20.941Z,15.55
2018-12-07T00:55:33.394Z,15.55
2018-12-07T00:55:45.876Z,15.55
2018-12-07T00:55:58.248Z,15.55
2018-12-07T00:56:10.680Z,15.55
2018-12-07T00:56:23.063Z,15.55
2018-12-07T00:56:35.421Z,15.55
2018-12-07T00:56:47.836Z,15.55
2018-12-07T00:57:00.206Z,15.55
2018-12-07T00:57:12.569Z,15.55
2018-12-07T00:57:24.932Z,15.55
2018-12-07T00:57:37.303Z,15.55
2018-12-07T00:57:49.656Z,15.55
2018-12-07T00:58:02.012Z,15.55
2018-12-07T00:58:14.526Z,15.55
2018-12-07T00:58:26.890Z,15.55
2018-12-07T00:58:39.256Z,15.55
2018-12-07T00:58:51.652Z,15.55
2018-12-07T00:59:04.101Z,15.55
2018-12-07T00:59:16.468Z,15.55
2018-12-07T00:59:28.828Z,15.55
2018-12-07T00:59:41.202Z,15.55
2018-12-07T00:59:53.753Z,15.55
2018-12-07T01:00:06.128Z,15.55
2018-12-07T01:00:18.505Z,15.55
2018-12-07T01:00:30.894Z,15.55
2018-12-07T01:00:43.281Z,15.55
2018-12-07T01:00:55.669Z,15.55
2018-12-07T01:01:08.036Z,15.55
2018-12-07T01:01:20.507Z,15.55
2018-12-07T01:01:32.975Z,15.55
2018-12-07T01:01:45.336Z,14.17
2018-12-07T01:01:57.850Z,14.17
2018-12-07T01:02:10.282Z,14.17
2018-12-07T01:02:22.637Z,14.17
2018-12-07T01:02:34.994Z,14.17
2018-12-07T01:02:47.378Z,14.17
2018-12-07T01:02:59.748Z,14.17
2018-12-07T01:03:12.399Z,14.17
2018-12-07T01:03:24.753Z,14.17
2018-12-07T01:03:37.106Z,14.17
2018-12-07T01:03:49.471Z,14.17
2018-12-07T01:04:01.850Z,14.17
2018-12-07T01:04:14.195Z,14.17
2018-12-07T01:04:26.565Z,14.17
2018-12-07T01:04:38.919Z,14.17
2018-12-07T01:04:51.273Z,14.17
2018-12-07T01:05:03.693Z,14.17
2018-12-07T01:05:16.243Z,14.17
2018-12-07T01:05:28.585Z,14.17
2018-12-07T01:05:41.022Z,14.17
2018-12-07T01:05:53.372Z,14.17
2018-12-07T01:06:05.732Z,14.17
2018-12-07T01:06:18.091Z,14.17
2018-12-07T01:06:30.480Z,14.17
2018-12-07T01:06:42.865Z,14.17
2018-12-07T01:06:55.232Z,14.17
2018-12-07T01:07:07.610Z,14.17
2018-12-07T01:07:19.981Z,14.17
2018-12-07T01:07:32.384Z,14.17
2018-12-07T01:07:44.796Z,14.17
2018-12-07T01:07:57.146Z,14.17
2018-12-07T01:08:09.510Z,14.17
2018-12-07T01:08:21.908Z,14.17
2018-12-07T01:08:34.299Z,14.17
2018-12-07T01:08:46.691Z,14.17
2018-12-07T01:08:59.051Z,14.17
2018-12-07T01:09:11.404Z,14.17
2018-12-07T01:09:23.881Z,14.17
2018-12-07T01:09:36.234Z,14.17
2018-12-07T01:09:48.656Z,14.17
2018-12-07T01:10:01.046Z,14.17
2018-12-07T01:10:13.408Z,14.17
2018-12-07T01:10:25.766Z,14.17
2018-12-07T01:10:38.132Z,14.17
2018-12-07T01:10:50.518Z,14.17
2018-12-07T01:11:02.862Z,14.17
2018-12-07T01:11:15.237Z,14.17
2018-12-07T01:11:27.804Z,14.17
2018-12-07T01:11:40.166Z,14.17
2018-12-07T01:11:52.527Z,14.6
2018-12-07T01:12:04.900Z,14.6
2018-12-07T01:12:17.296Z,14.6
2018-12-07T01:12:29.651Z,14.6
2018-12-07T01:12:42.127Z,14.6
2018-12-07T01:12:54.599Z,14.6
2018-12-07T01:13:06.971Z,14.6
2018-12-07T01:13:19.318Z,14.6
2018-12-07T01:13:31.688Z,14.6
2018-12-07T01:13:44.050Z,14.6
2018-12-07T01:13:56.558Z,14.6
2018-12-07T01:14:08.954Z,14.6
2018-12-07T01:14:21.339Z,14.6
2018-12-07T01:14:33.701Z,14.6
2018-12-07T01:14:46.070Z,14.6
2018-12-07T01:14:58.462Z,14.6
2018-12-07T01:15:10.825Z,14.6
2018-12-07T01:15:23.199Z,14.6
2018-12-07T01:15:35.577Z,14.6
2018-12-07T01:15:47.938Z,14.6
2018-12-07T01:16:00.429Z,14.6
2018-12-07T01:16:12.790Z,14.6
2018-12-07T01:16:25.149Z,14.6
2018-12-07T01:16:37.531Z,14.6
2018-12-07T01:16:49.922Z,14.6
2018-12-07T01:17:02.290Z,14.6
2018-12-07T01:17:14.665Z,14.6
2018-12-07T01:17:27.010Z,14.6
2018-12-07T01:17:39.376Z,14.6
2018-12-07T01:17:51.740Z,14.6
2018-12-07T01:18:04.111Z,14.6
2018-12-07T01:18:16.498Z,14.6
2018-12-07T01:18:28.884Z,14.6
2018-12-07T01:18:41.231Z,14.6
2018-12-07T01:18:53.603Z,14.6
2018-12-07T01:19:05.961Z,14.6
2018-12-07T01:19:18.341Z,14.6
2018-12-07T01:19:30.847Z,14.6
2018-12-07T01:19:43.203Z,14.6
2018-12-07T01:19:55.561Z,14.6
2018-12-07T01:20:07.912Z,14.6
2018-12-07T01:20:20.269Z,14.6
2018-12-07T01:20:32.778Z,14.6
2018-12-07T01:20:45.151Z,14.6
2018-12-07T01:20:57.516Z,14.6
2018-12-07T01:21:09.890Z,14.6
2018-12-07T01:21:22.244Z,14.6
2018-12-07T01:21:34.621Z,14.6
2018-12-07T01:21:46.973Z,14.21
2018-12-07T01:21:59.381Z,14.21
2018-12-07T01:22:11.734Z,14.21
2018-12-07T01:22:24.100Z,14.21
2018-12-07T01:22:36.458Z,14.21
2018-12-07T01:22:48.818Z,14.21
2018-12-07T01:23:01.180Z,14.21
2018-12-07T01:23:13.548Z,14.21
2018-12-07T01:23:25.914Z,14.21
2018-12-07T01:23:38.369Z,14.21
2018-12-07T01:23:50.720Z,14.21
2018-12-07T01:24:03.080Z,14.21
2018-12-07T01:24:15.439Z,14.21
2018-12-07T01:24:27.793Z,14.21
2018-12-07T01:24:40.138Z,14.21
2018-12-07T01:24:52.524Z,14.21
2018-12-07T01:25:04.882Z,14.21
2018-12-07T01:25:17.253Z,14.21
2018-12-07T01:25:29.614Z,14.21
2018-12-07T01:25:42.075Z,14.21
2018-12-07T01:25:54.618Z,14.21
2018-12-07T01:26:06.986Z,14.21
2018-12-07T01:26:19.529Z,14.21
2018-12-07T01:26:32.020Z,14.21
2018-12-07T01:26:44.374Z,14.21
2018-12-07T01:26:56.750Z,14.21
2018-12-07T01:27:09.107Z,14.21
2018-12-07T01:27:21.632Z,14.21
2018-12-07T01:27:33.999Z,14.21
2018-12-07T01:27:46.396Z,14.21
2018-12-07T01:27:58.751Z,14.21
2018-12-07T01:28:11.116Z,14.21
2018-12-07T01:28:23.465Z,14.21
2018-12-07T01:28:35.817Z,14.21
2018-12-07T01:28:48.178Z,14.21
2018-12-07T01:29:00.542Z,14.21
2018-12-07T01:29:12.904Z,14.21
2018-12-07T01:29:25.273Z,14.21
2018-12-07T01:29:37.642Z,14.21
2018-12-07T01:29:50.022Z,14.21
2018-12-07T01:30:02.410Z,14.21
2018-12-07T01:30:14.785Z,14.21
2018-12-07T01:30:27.315Z,14.21
2018-12-07T01:30:39.744Z,14.21
2018-12-07T01:30:52.115Z,14.21
2018-12-07T01:31:04.490Z,14.21
2018-12-07T01:31:16.866Z,14.21
2018-12-07T01:31:29.247Z,14.21
2018-12-07T01:31:41.639Z,14.21
2018-12-07T01:31:54.017Z,10.94
2018-12-07T01:32:06.400Z,10.94
2018-12-07T01:32:18.857Z,10.94
2018-12-07T01:32:31.237Z,10.94
2018-12-07T01:32:43.603Z,10.94
2018-12-07T01:32:55.965Z,10.94
2018-12-07T01:33:08.352Z,10.94
2018-12-07T01:33:20.784Z,10.94
2018-12-07T01:33:33.162Z,10.94
2018-12-07T01:33:45.519Z,10.94
2018-12-07T01:33:57.984Z,10.94
2018-12-07T01:34:10.369Z,10.94
2018-12-07T01:34:22.742Z,10.94
2018-12-07T01:34:35.206Z,10.94
2018-12-07T01:34:47.681Z,10.94
2018-12-07T01:35:00.042Z,10.94
2018-12-07T01:35:12.422Z,10.94
2018-12-07T01:35:24.783Z,10.94
2018-12-07T01:35:37.143Z,10.94
2018-12-07T01:35:49.530Z,10.94
2018-12-07T01:36:01.905Z,10.94
2018-12-07T01:36:14.277Z,10.94
2018-12-07T01:36:26.658Z,10.94
2018-12-07T01:36:39.019Z,10.94
2018-12-07T01:36:51.682Z,10.94
2018-12-07T01:37:04.029Z,10.94
2018-12-07T01:37:16.416Z,10.94
2018-12-07T01:37:28.791Z,10.94
2018-12-07T01:37:41.237Z,10.94
2018-12-07T01:37:53.622Z,10.94
2018-12-07T01:38:05.994Z,10.94
2018-12-07T01:38:18.388Z,10.94
2018-12-07T01:38:30.766Z,10.94
2018-12-07T01:38:43.150Z,10.94
2018-12-07T01:38:55.606Z,10.94
2018-12-07T01:39:07.979Z,10.94
2018-12-07T01:39:20.362Z,10.94
2018-12-07T01:39:32.729Z,10.94
2018-12-07T01:39:45.099Z,10.94
2018-12-07T01:39:57.455Z,10.94
2018-12-07T01:40:09.823Z,10.94
2018-12-07T01:40:22.207Z,10.94
2018-12-07T01:40:34.589Z,10.94
2018-12-07T01:40:46.972Z,10.94
2018-12-07T01:40:59.381Z,10.94
2018-12-07T01:41:11.881Z,10.94
2018-12-07T01:41:24.240Z,10.94
2018-12-07T01:41:36.621Z,10.94
2018-12-07T01:41:48.968Z,11.78
2018-12-07T01:42:01.472Z,11.78
2018-12-07T01:42:13.822Z,11.78
2018-12-07T01:42:26.178Z,11.78
2018-12-07T01:42:38.555Z,11.78
2018-12-07T01:42:50.909Z,11.78
2018-12-07T01:43:03.271Z,11.78
2018-12-07T01:43:15.660Z,11.78
2018-12-07T01:43:28.023Z,11.78
2018-12-07T01:43:40.372Z,11.78
2018-12-07T01:43:52.800Z,11.78
2018-12-07T01:44:05.156Z,11.78
2018-12-07T01:44:17.545Z,11.78
2018-12-07T01:44:29.915Z,11.78
2018-12-07T01:44:42.285Z,11.78
2018-12-07T01:44:54.659Z,11.78
2018-12-07T01:45:07.016Z,11.78
2018-12-07T01:45:19.390Z,11.78
2018-12-07T01:45:31.933Z,11.78
2018-12-07T01:45:44.321Z,11.78
2018-12-07T01:45:56.679Z,11.78
2018-12-07T01:46:09.024Z,11.78
2018-12-07T01:46:21.421Z,11.78
2018-12-07T01:46:33.792Z,11.78
2018-12-07T01:46:46.154Z,11.78
2018-12-07T01:46:58.508Z,11.78
2018-12-07T01:47:10.941Z,11.78
2018-12-07T01:47:23.312Z,11.78
2018-12-07T01:47:35.665Z,11.78
2018-12-07T01:47:48.052Z,11.78
2018-12-07T01:48:00.435Z,11.78
2018-12-07T01:48:12.796Z,11.78
2018-12-07T01:48:25.148Z,11.78
2018-12-07T01:48:37.766Z,11.78
2018-12-07T01:48:50.206Z,11.78
2018-12-07T01:49:02.569Z,11.78
2018-12-07T01:49:15.027Z,11.78
2018-12-07T01:49:28.667Z,11.78
2018-12-07T01:49:41.018Z,11.78
2018-12-07T01:49:53.387Z,11.78
2018-12-07T01:50:05.910Z,11.78
2018-12-07T01:50:18.317Z,11.78
2018-12-07T01:50:30.681Z,11.78
2018-12-07T01:50:43.239Z,11.78
2018-12-07T01:50:55.588Z,11.78
2018-12-07T01:51:08.015Z,11.78
2018-12-07T01:51:20.378Z,11.78
2018-12-07T01:51:32.752Z,11.78
2018-12-07T01:51:45.260Z,11.78
2018-12-07T01:51:57.632Z,11.56
2018-12-07T01:52:10.011Z,11.56
2018-12-07T01:52:22.377Z,11.56
2018-12-07T01:52:34.737Z,11.56
2018-12-07T01:52:47.092Z,11.56
2018-12-07T01:52:59.453Z,11.56
2018-12-07T01:53:11.815Z,11.56
2018-12-07T01:53:24.179Z,11.56
2018-12-07T01:53:36.537Z,11.56
2018-12-07T01:53:48.913Z,11.56
2018-12-07T01:54:01.284Z,11.56
2018-12-07T01:54:13.657Z,11.56
2018-12-07T01:54:26.058Z,11.56
2018-12-07T01:54:38.429Z,11.56
2018-12-07T01:54:50.874Z,11.56
2018-12-07T01:55:03.291Z,11.56
2018-12-07T01:55:15.658Z,11.56
2018-12-07T01:55:28.031Z,11.56
2018-12-07T01:55:40.371Z,11.56
2018-12-07T01:55:52.734Z,11.56
2018-12-07T01:56:05.094Z,11.56
2018-12-07T01:56:17.472Z,11.56
2018-12-07T01:56:29.831Z,11.56
2018-12-07T01:56:42.231Z,11.56
2018-12-07T01:56:54.577Z,11.56
2018-12-07T01:57:06.969Z,11.56
2018-12-07T01:57:19.358Z,11.56
2018-12-07T01:57:31.793Z,11.56
2018-12-07T01:57:44.148Z,11.56
2018-12-07T01:57:56.529Z,11.56
2018-12-07T01:58:08.880Z,11.56
2018-12-07T01:58:21.334Z,11.56
2018-12-07T01:58:33.697Z,11.56
2018-12-07T01:58:46.064Z,11.56
2018-12-07T01:58:58.415Z,11.56
2018-12-07T01:59:10.768Z,11.56
2018-12-07T01:59:23.103Z,11.56
2018-12-07T01:59:35.496Z,11.56
2018-12-07T01:59:47.865Z,11.56
2018-12-07T02:00:00.229Z,11.56
2018-12-07T02:00:12.631Z,11.56
2018-12-07T02:00:25.053Z,11.56
2018-12-07T02:00:37.446Z,11.56
2018-12-07T02:00:49.850Z,11.56
2018-12-07T02:01:02.250Z,11.56
2018-12-07T02:01:14.657Z,11.56
2018-12-07T02:01:27.031Z,11.56
2018-12-07T02:01:39.711Z,11.56
2018-12-07T02:01:52.076Z,10.16
2018-12-07T02:02:04.610Z,10.16
2018-12-07T02:02:16.958Z,10.16
2018-12-07T02:02:29.324Z,10.16
2018-12-07T02:02:41.707Z,10.16
2018-12-07T02:02:54.081Z,10.16
2018-12-07T02:03:06.444Z,10.16
2018-12-07T02:03:19.114Z,10.16
2018-12-07T02:03:31.474Z,10.16
2018-12-07T02:03:43.840Z,10.16
2018-12-07T02:03:56.193Z,10.16
2018-12-07T02:04:08.630Z,10.16
2018-12-07T02:04:20.974Z,10.16
2018-12-07T02:04:33.332Z,10.16
2018-12-07T02:04:45.694Z,10.16
2018-12-07T02:04:58.058Z,10.16
2018-12-07T02:05:10.423Z,10.16
2018-12-07T02:05:22.780Z,10.16
2018-12-07T02:05:35.156Z,10.16
2018-12-07T02:05:47.520Z,10.16
2018-12-07T02:05:59.893Z,10.16
2018-12-07T02:06:12.279Z,10.16
2018-12-07T02:06:24.655Z,10.16
2018-12-07T02:06:37.118Z,10.16
2018-12-07T02:06:49.476Z,10.16
2018-12-07T02:07:01.836Z,10.16
2018-12-07T02:07:14.189Z,10.16
2018-12-07T02:07:26.612Z,10.16
2018-12-07T02:07:39.015Z,10.16
2018-12-07T02:07:51.386Z,10.16
2018-12-07T02:08:03.763Z,10.16
2018-12-07T02:08:16.126Z,10.16
2018-12-07T02:08:28.503Z,10.16
2018-12-07T02:08:40.917Z,10.16
2018-12-07T02:08:53.272Z,10.16
2018-12-07T02:09:05.651Z,10.16
2018-12-07T02:09:18.348Z,10.16
2018-12-07T02:09:30.727Z,10.16
2018-12-07T02:09:43.106Z,10.16
2018-12-07T02:09:55.573Z,10.16
2018-12-07T02:10:07.964Z,10.16
2018-12-07T02:10:20.326Z,10.16
2018-12-07T02:10:32.686Z,10.16
2018-12-07T02:10:45.076Z,10.16
2018-12-07T02:10:57.470Z,10.16
2018-12-07T02:11:09.859Z,10.16
2018-12-07T02:11:22.248Z,10.16
2018-12-07T02:11:34.609Z,10.16
2018-12-07T02:11:46.982Z,10.16
2018-12-07T02:11:59.334Z,9.18
2018-12-07T02:12:11.696Z,9.18
2018-12-07T02:12:24.090Z,9.18
2018-12-07T02:12:36.462Z,9.18
2018-12-07T02:12:48.901Z,9.18
2018-12-07T02:13:01.264Z,9.18
2018-12-07T02:13:13.621Z,9.18
2018-12-07T02:13:26.007Z,9.18
2018-12-07T02:13:38.521Z,9.18
2018-12-07T02:13:50.884Z,9.18
2018-12-07T02:14:03.315Z,9.18
2018-12-07T02:14:15.727Z,9.18
2018-12-07T02:14:28.072Z,9.18
2018-12-07T02:14:40.440Z,9.18
2018-12-07T02:14:53.284Z,9.18
2018-12-07T02:15:05.658Z,9.18
2018-12-07T02:15:18.041Z,9.18
2018-12-07T02:15:30.434Z,9.18
2018-12-07T02:15:42.863Z,9.18
2018-12-07T02:15:55.244Z,9.18
2018-12-07T02:16:07.619Z,9.18
2018-12-07T02:16:20.063Z,9.18
2018-12-07T02:16:32.407Z,9.18
2018-12-07T02:16:44.782Z,9.18
2018-12-07T02:16:57.217Z,9.18
2018-12-07T02:17:09.576Z,9.18
2018-12-07T02:17:21.938Z,9.18
2018-12-07T02:17:34.311Z,9.18
2018-12-07T02:17:46.687Z,9.18
2018-12-07T02:17:59.069Z,9.18
2018-12-07T02:18:11.432Z,9.18
2018-12-07T02:18:23.812Z,9.18
2018-12-07T02:18:36.165Z,9.18
2018-12-07T02:18:48.522Z,9.18
2018-12-07T02:19:00.881Z,9.18
2018-12-07T02:19:13.239Z,9.18
2018-12-07T02:19:25.759Z,9.18
2018-12-07T02:19:38.113Z,9.18
2018-12-07T02:19:50.470Z,9.18
2018-12-07T02:20:02.845Z,9.18
2018-12-07T02:20:15.198Z,9.18
2018-12-07T02:20:27.731Z,9.18
2018-12-07T02:20:40.189Z,9.18
2018-12-07T02:20:52.535Z,9.18
2018-12-07T02:21:04.897Z,9.18
2018-12-07T02:21:17.266Z,9.18
2018-12-07T02:21:29.659Z,9.18
2018-12-07T02:21:42.029Z,9.18
2018-12-07T02:21:54.401Z,10.57
2018-12-07T02:22:06.753Z,10.57
2018-12-07T02:22:19.109Z,10.57
2018-12-07T02:22:31.476Z,10.57
2018-12-07T02:22:43.851Z,10.57
2018-12-07T02:22:56.199Z,10.57
2018-12-07T02:23:08.568Z,10.57
2018-12-07T02:23:20.938Z,10.57
2018-12-07T02:23:33.328Z,10.57
2018-12-07T02:23:45.670Z,10.57
2018-12-07T02:23:58.026Z,10.57
2018-12-07T02:24:10.373Z,10.57
2018-12-07T02:24:22.722Z,10.57
2018-12-07T02:24:35.074Z,10.57
2018-12-07T02:24:47.457Z,10.57
2018-12-07T02:24:59.845Z,10.57
2018-12-07T02:25:12.252Z,10.57
2018-12-07T02:25:24.630Z,10.57
2018-12-07T02:25:37.022Z,10.57
2018-12-07T02:25:49.373Z,10.57
2018-12-07T02:26:01.753Z,10.57
2018-12-07T02:26:14.235Z,10.57
2018-12-07T02:26:26.880Z,10.57
2018-12-07T02:26:39.234Z,10.57
2018-12-07T02:26:51.601Z,10.57
2018-12-07T02:27:05.411Z,10.57
2018-12-07T02:27:17.800Z,10.57
2018-12-07T02:27:30.219Z,10.57
2018-12-07T02:27:42.591Z,10.57
2018-12-07T02:27:54.977Z,10.57
2018-12-07T02:28:07.348Z,10.57
2018-12-07T02:28:19.729Z,10.57
2018-12-07T02:28:32.108Z,10.57
2018-12-07T02:28:44.476Z,10.57
2018-12-07T02:28:56.842Z,10.57
2018-12-07T02:29:09.300Z,10.57
2018-12-07T02:29:21.658Z,10.57
2018-12-07T02:29:34.020Z,10.57
2018-12-07T02:29:46.397Z,10.57
2018-12-07T02:29:58.754Z,10.57
2018-12-07T02:30:11.221Z,10.57
2018-12-07T02:30:23.796Z,10.57
2018-12-07T02:30:36.406Z,10.57
2018-12-07T02:30:48.797Z,10.57
2018-12-07T02:31:01.175Z,10.57
2018-12-07T02:31:13.573Z,10.57
2018-12-07T02:31:26.051Z,10.57
2018-12-07T02:31:38.467Z,10.57
2018-12-07T02:31:50.852Z,12.45
2018-12-07T02:32:03.275Z,12.45
2018-12-07T02:32:15.675Z,12.45
2018-12-07T02:32:28.344Z,12.45
2018-12-07T02:32:40.765Z,12.45
2018-12-07T02:32:53.138Z,12.45
2018-12-07T02:33:05.514Z,12.45
2018-12-07T02:33:17.885Z,12.45
2018-12-07T02:33:30.314Z,12.45
2018-12-07T02:33:42.715Z,12.45
2018-12-07T02:33:55.105Z,12.45
2018-12-07T02:34:07.493Z,12.45
2018-12-07T02:34:19.865Z,12.45
2018-12-07T02:34:32.254Z,12.45
2018-12-07T02:34:44.746Z,12.45
2018-12-07T02:34:57.126Z,12.45
2018-12-07T02:35:09.529Z,12.45
2018-12-07T02:35:22.067Z,12.45
2018-12-07T02:35:34.447Z,12.45
2018-12-07T02:35:46.832Z,12.45
2018-12-07T02:35:59.201Z,12.45
2018-12-07T02:36:11.611Z,12.45
2018-12-07T02:36:24.016Z,12.45
2018-12-07T02:36:36.440Z,12.45
2018-12-07T02:36:48.825Z,12.45
2018-12-07T02:37:01.307Z,12.45
2018-12-07T02:37:13.686Z,12.45
2018-12-07T02:37:26.083Z,12.45
2018-12-07T02:37:38.476Z,12.45
2018-12-07T02:37:50.854Z,12.45
2018-12-07T02:38:03.257Z,12.45
2018-12-07T02:38:15.678Z,12.45
2018-12-07T02:38:28.108Z,12.45
2018-12-07T02:38:40.494Z,12.45
2018-12-07T02:38:52.870Z,12.45
2018-12-07T02:39:05.233Z,12.45
2018-12-07T02:39:17.634Z,12.45
2018-12-07T02:39:30.018Z,12.45
2018-12-07T02:39:42.415Z,12.45
2018-12-07T02:39:54.813Z,12.45
2018-12-07T02:40:07.281Z,12.45
2018-12-07T02:40:19.678Z,12.45
2018-12-07T02:40:32.056Z,12.45
2018-12-07T02:40:44.450Z,12.45
2018-12-07T02:40:56.856Z,12.45
2018-12-07T02:41:09.672Z,12.45